Time;durP1;ratioP1;P1;durP2;ratioP2;P2;SDS_P1;SDS_P2;PMS_P1;PMS_P2;Temp;Humidity;BMP_temperature;BMP_pressure;BME280_temperature;BME280_humidity;BME280_pressure;Samples;Min_cycle;Max_cycle;Signal;HPM_P1;HPM_P2
2021/04/23 00:01:25;;;;;;;18.23;5.32;;;;;;;;;;5132373;27;20102;-72
2021/04/23 00:03:54;;;;;;;16.98;4.45;;;;;;;;;;5133153;28;20399;-72
2021/04/23 00:06:22;;;;;;;14.68;4.97;;;;;;;;;;5132250;27;20065;-71
2021/04/23 00:08:51;;;;;;;18.08;4.55;;;;;;;;;;5114802;28;20070;-71
2021/04/23 00:11:18;;;;;;;16.60;5.28;;;;;;;;;;5113905;28;20100;-71
2021/04/23 00:13:44;;;;;;;18.73;5.57;;;;;;;;;;5132995;28;20039;-70
2021/04/23 00:16:11;;;;;;;21.75;5.25;;;;;;;;;;5133085;28;20039;-71
2021/04/23 00:18:38;;;;;;;21.13;5.55;;;;;;;;;;5114535;28;20435;-71
2021/04/23 00:21:06;;;;;;;15.57;5.20;;;;;;;;;;5133116;28;20039;-70
2021/04/23 00:23:33;;;;;;;12.70;4.57;;;;;;;;;;5131997;28;20047;-70
2021/04/23 00:26:00;;;;;;;17.85;4.93;;;;;;;;;;5132700;28;20096;-70
2021/04/23 00:28:26;;;;;;;20.85;4.88;;;;;;;;;;5113952;28;20039;-70
2021/04/23 00:30:53;;;;;;;12.73;4.82;;;;;;;;;;5114663;28;20039;-70
2021/04/23 00:33:21;;;;;;;16.08;5.03;;;;;;;;;;5132131;28;20035;-70
2021/04/23 00:35:48;;;;;;;14.65;4.85;;;;;;;;;;5132911;28;20125;-71
2021/04/23 00:38:16;;;;;;;15.05;5.10;;;;;;;;;;5132310;28;20583;-71
2021/04/23 00:40:50;;;;;;;16.00;4.95;;;;;;;;;;5132894;28;20043;-70
2021/04/23 00:43:20;;;;;;;21.17;5.85;;;;;;;;;;5132306;28;20043;-71
2021/04/23 00:45:47;;;;;;;12.68;4.25;;;;;;;;;;5114740;28;20549;-71
2021/04/23 00:48:13;;;;;;;18.70;4.68;;;;;;;;;;5132800;28;20049;-71
2021/04/23 00:50:42;;;;;;;17.75;5.45;;;;;;;;;;5132192;28;20039;-71
2021/04/23 00:53:09;;;;;;;16.13;5.00;;;;;;;;;;5132405;28;20058;-71
2021/04/23 00:55:36;;;;;;;14.40;4.45;;;;;;;;;;5132088;28;20374;-71
2021/04/23 00:58:05;;;;;;;17.83;5.35;;;;;;;;;;5097353;28;20043;-72
2021/04/23 01:00:31;;;;;;;14.68;4.40;;;;;;;;;;5132096;28;20071;-71
2021/04/23 01:02:57;;;;;;;18.65;5.22;;;;;;;;;;5114528;28;20039;-72
2021/04/23 01:05:32;;;;;;;15.98;4.60;;;;;;;;;;5114502;27;20039;-71
2021/04/23 01:07:59;;;;;;;13.95;4.50;;;;;;;;;;5136353;27;20043;-71
2021/04/23 01:10:25;;;;;;;19.13;4.45;;;;;;;;;;5135816;27;20035;-71
2021/04/23 01:12:52;;;;;;;15.27;4.43;;;;;;;;;;5135919;27;20039;-71
2021/04/23 01:15:18;;;;;;;16.13;5.10;;;;;;;;;;5136024;27;20047;-71
2021/04/23 01:17:44;;;;;;;12.70;4.05;;;;;;;;;;5136256;27;20043;-71
2021/04/23 01:20:11;;;;;;;15.25;4.35;;;;;;;;;;5136294;27;20490;-72
2021/04/23 01:22:37;;;;;;;20.33;5.30;;;;;;;;;;5135525;27;20109;-71
2021/04/23 01:25:04;;;;;;;20.00;5.10;;;;;;;;;;5136048;27;20043;-71
2021/04/23 01:27:30;;;;;;;14.48;4.43;;;;;;;;;;5135258;27;20051;-71
2021/04/23 01:29:56;;;;;;;10.45;4.30;;;;;;;;;;5135614;27;20138;-71
2021/04/23 01:32:23;;;;;;;24.73;5.70;;;;;;;;;;5135306;27;20122;-71
2021/04/23 01:34:49;;;;;;;15.30;4.45;;;;;;;;;;5117682;27;20470;-71
2021/04/23 01:37:15;;;;;;;21.13;4.97;;;;;;;;;;5135939;27;20091;-70
2021/04/23 01:39:42;;;;;;;18.77;4.60;;;;;;;;;;5134846;27;20055;-70
2021/04/23 01:42:09;;;;;;;14.50;4.05;;;;;;;;;;5135672;27;20070;-71
2021/04/23 01:44:36;;;;;;;11.02;3.97;;;;;;;;;;5135135;27;20071;-71
2021/04/23 01:47:03;;;;;;;20.80;4.32;;;;;;;;;;5135625;27;20043;-71
2021/04/23 01:49:30;;;;;;;17.60;3.97;;;;;;;;;;5134625;27;20443;-71
2021/04/23 01:51:58;;;;;;;13.25;4.45;;;;;;;;;;5117032;27;20122;-70
2021/04/23 01:54:25;;;;;;;14.07;3.38;;;;;;;;;;5134958;27;20042;-71
2021/04/23 01:56:52;;;;;;;19.08;3.97;;;;;;;;;;5135471;27;20046;-71
2021/04/23 01:59:18;;;;;;;17.88;3.75;;;;;;;;;;5135062;27;20045;-71
2021/04/23 02:01:44;;;;;;;13.18;3.72;;;;;;;;;;5134682;27;20478;-71
2021/04/23 02:04:12;;;;;;;9.77;3.90;;;;;;;;;;5135082;27;20047;-71
2021/04/23 02:06:39;;;;;;;19.83;4.38;;;;;;;;;;5134665;27;20043;-71
2021/04/23 02:09:07;;;;;;;17.02;3.90;;;;;;;;;;5117059;27;20424;-71
2021/04/23 02:11:33;;;;;;;17.75;4.18;;;;;;;;;;5116140;27;20066;-72
2021/04/23 02:13:59;;;;;;;18.38;3.88;;;;;;;;;;5135152;27;20046;-71
2021/04/23 02:16:26;;;;;;;19.83;4.45;;;;;;;;;;5134434;27;20142;-72
2021/04/23 02:18:53;;;;;;;18.20;3.90;;;;;;;;;;5116308;27;20488;-71
2021/04/23 02:21:19;;;;;;;21.45;3.70;;;;;;;;;;5134834;27;20470;-72
2021/04/23 02:23:47;;;;;;;15.95;4.50;;;;;;;;;;5134011;27;20043;-71
2021/04/23 02:26:14;;;;;;;17.92;4.65;;;;;;;;;;5134820;27;20051;-71
2021/04/23 02:28:40;;;;;;;19.17;5.03;;;;;;;;;;5134279;27;20123;-71
2021/04/23 02:31:11;;;;;;;13.93;4.28;;;;;;;;;;5134592;27;20402;-71
2021/04/23 02:33:38;;;;;;;18.98;3.78;;;;;;;;;;5134428;27;20477;-72
2021/04/23 02:36:05;;;;;;;16.27;4.15;;;;;;;;;;5134400;27;20043;-72
2021/04/23 02:38:31;;;;;;;15.15;4.07;;;;;;;;;;5133986;27;20054;-71
2021/04/23 02:40:58;;;;;;;14.07;3.78;;;;;;;;;;5134276;27;20402;-73
2021/04/23 02:43:28;;;;;;;15.20;4.15;;;;;;;;;;5116137;27;20051;-72
2021/04/23 02:45:55;;;;;;;10.95;3.45;;;;;;;;;;5134441;27;20043;-71
2021/04/23 02:48:23;;;;;;;14.38;3.63;;;;;;;;;;5134209;27;20118;-72
2021/04/23 02:50:51;;;;;;;13.02;3.50;;;;;;;;;;5133463;27;20051;-71
2021/04/23 02:53:17;;;;;;;12.20;3.92;;;;;;;;;;5134155;27;20439;-71
2021/04/23 02:55:43;;;;;;;17.63;4.00;;;;;;;;;;5133490;27;20039;-72
2021/04/23 02:58:12;;;;;;;10.55;3.25;;;;;;;;;;5134254;27;20050;-72
2021/04/23 03:00:40;;;;;;;16.92;4.03;;;;;;;;;;5133795;27;20493;-72
2021/04/23 03:03:06;;;;;;;13.13;3.28;;;;;;;;;;5134301;27;20045;-71
2021/04/23 03:05:33;;;;;;;16.27;3.92;;;;;;;;;;5115436;27;20466;-71
2021/04/23 03:08:00;;;;;;;16.60;4.07;;;;;;;;;;5133820;27;20463;-72
2021/04/23 03:10:28;;;;;;;13.00;3.60;;;;;;;;;;5134230;27;20054;-71
2021/04/23 03:12:56;;;;;;;17.02;3.65;;;;;;;;;;5133452;27;20043;-71
2021/04/23 03:15:23;;;;;;;12.18;3.67;;;;;;;;;;5134075;27;20103;-71
2021/04/23 03:17:50;;;;;;;15.35;3.95;;;;;;;;;;5133209;27;20045;-71
2021/04/23 03:20:18;;;;;;;13.18;3.35;;;;;;;;;;5133772;27;20043;-72
2021/04/23 03:22:44;;;;;;;12.20;3.83;;;;;;;;;;5133264;27;20040;-72
2021/04/23 03:25:12;;;;;;;13.15;4.03;;;;;;;;;;5133918;27;20051;-71
2021/04/23 03:27:39;;;;;;;15.52;3.38;;;;;;;;;;5132926;27;20462;-71
2021/04/23 03:30:06;;;;;;;13.00;3.53;;;;;;;;;;5133929;27;20122;-71
2021/04/23 03:32:33;;;;;;;16.83;3.58;;;;;;;;;;5133157;27;20477;-71
2021/04/23 03:34:59;;;;;;;20.50;3.80;;;;;;;;;;5133664;27;20039;-71
2021/04/23 03:37:25;;;;;;;15.55;3.65;;;;;;;;;;5115460;27;20046;-72
2021/04/23 03:39:52;;;;;;;17.00;3.58;;;;;;;;;;5133003;27;20043;-71
2021/04/23 03:42:18;;;;;;;13.57;3.50;;;;;;;;;;5115458;27;20043;-71
2021/04/23 03:44:45;;;;;;;19.77;4.30;;;;;;;;;;5132731;27;20389;-71
2021/04/23 03:47:11;;;;;;;14.95;3.83;;;;;;;;;;5133561;27;20522;-71
2021/04/23 03:49:37;;;;;;;15.10;3.78;;;;;;;;;;5097750;27;20101;-72
2021/04/23 03:52:04;;;;;;;15.35;3.60;;;;;;;;;;5133043;27;20134;-72
2021/04/23 03:54:30;;;;;;;13.57;3.65;;;;;;;;;;5133329;27;20112;-71
2021/04/23 03:56:56;;;;;;;12.77;3.22;;;;;;;;;;5114184;27;20055;-71
2021/04/23 03:59:22;;;;;;;16.17;4.07;;;;;;;;;;5133677;27;20069;-72
2021/04/23 04:01:48;;;;;;;15.55;3.30;;;;;;;;;;5132769;27;20045;-72
2021/04/23 04:04:15;;;;;;;15.85;3.75;;;;;;;;;;5133560;27;20047;-71
2021/04/23 04:06:41;;;;;;;13.10;2.88;;;;;;;;;;5132105;27;20600;-72
2021/04/23 04:09:07;;;;;;;15.60;3.85;;;;;;;;;;5097857;28;20043;-72
2021/04/23 04:11:34;;;;;;;13.98;3.72;;;;;;;;;;5114612;28;20447;-72
2021/04/23 04:14:00;;;;;;;14.60;4.03;;;;;;;;;;5132407;28;20118;-72
2021/04/23 04:16:26;;;;;;;12.60;3.20;;;;;;;;;;5114820;28;20055;-72
2021/04/23 04:18:52;;;;;;;13.73;3.55;;;;;;;;;;5132954;28;20047;-73
2021/04/23 04:21:18;;;;;;;10.98;3.53;;;;;;;;;;5114563;28;20432;-72
2021/04/23 04:23:44;;;;;;;22.92;5.00;;;;;;;;;;5114255;28;20447;-72
2021/04/23 04:26:11;;;;;;;18.30;5.50;;;;;;;;;;5132901;28;20423;-72
2021/04/23 04:28:37;;;;;;;22.00;3.85;;;;;;;;;;5132980;28;20047;-71
2021/04/23 04:31:04;;;;;;;15.50;3.60;;;;;;;;;;5097199;28;20413;-71
2021/04/23 04:33:30;;;;;;;18.52;3.63;;;;;;;;;;5132898;28;20482;-72
2021/04/23 04:35:56;;;;;;;16.23;3.40;;;;;;;;;;5132376;28;20039;-72
2021/04/23 04:38:22;;;;;;;8.52;3.17;;;;;;;;;;5114747;28;20575;-72
2021/04/23 04:40:50;;;;;;;11.13;3.03;;;;;;;;;;5135451;27;20126;-72
2021/04/23 04:43:17;;;;;;;13.57;3.90;;;;;;;;;;5136657;27;20550;-72
2021/04/23 04:45:43;;;;;;;12.63;3.10;;;;;;;;;;5136348;27;20071;-71
2021/04/23 04:48:10;;;;;;;17.60;3.85;;;;;;;;;;5136933;27;20048;-72
2021/04/23 04:50:43;;;;;;;11.23;3.70;;;;;;;;;;5136693;27;20088;-72
2021/04/23 04:53:10;;;;;;;16.50;3.63;;;;;;;;;;5117934;27;20096;-72
2021/04/23 04:55:38;;;;;;;23.05;4.30;;;;;;;;;;5118137;27;20043;-72
2021/04/23 04:58:05;;;;;;;12.90;4.10;;;;;;;;;;5135915;27;20046;-72
2021/04/23 05:00:32;;;;;;;17.02;4.03;;;;;;;;;;5136266;27;20490;-72
2021/04/23 05:02:58;;;;;;;18.70;4.15;;;;;;;;;;5117199;27;20379;-73
2021/04/23 05:05:25;;;;;;;21.15;4.38;;;;;;;;;;5118276;27;20035;-71
2021/04/23 05:07:51;;;;;;;21.10;4.07;;;;;;;;;;5117531;27;20079;-72
2021/04/23 05:10:18;;;;;;;20.20;4.05;;;;;;;;;;5136113;27;20466;-71
2021/04/23 05:12:44;;;;;;;21.73;4.82;;;;;;;;;;5135783;27;20039;-71
2021/04/23 05:15:11;;;;;;;13.98;4.55;;;;;;;;;;5136547;27;20387;-71
2021/04/23 05:17:38;;;;;;;16.60;3.58;;;;;;;;;;5136143;27;20047;-71
2021/04/23 05:20:05;;;;;;;18.10;4.80;;;;;;;;;;5100386;27;20697;-72
2021/04/23 05:22:33;;;;;;;15.85;4.93;;;;;;;;;;5117325;27;20489;-71
2021/04/23 05:24:59;;;;;;;16.48;3.88;;;;;;;;;;5135397;27;20043;-73
2021/04/23 05:27:25;;;;;;;14.45;4.75;;;;;;;;;;5117280;27;20066;-74
2021/04/23 05:29:51;;;;;;;19.42;3.78;;;;;;;;;;5116821;27;20053;-70
2021/04/23 05:32:20;;;;;;;11.20;3.55;;;;;;;;;;5135786;27;20039;-70
2021/04/23 05:34:46;;;;;;;13.95;3.30;;;;;;;;;;5135349;27;20071;-72
2021/04/23 05:37:12;;;;;;;17.17;4.32;;;;;;;;;;5135636;27;20047;-72
2021/04/23 05:39:42;;;;;;;15.93;4.18;;;;;;;;;;5135846;27;20169;-73
2021/04/23 05:42:08;;;;;;;21.05;3.78;;;;;;;;;;5135164;27;20047;-73
2021/04/23 05:44:34;;;;;;;20.20;4.78;;;;;;;;;;5134596;27;20407;-73
2021/04/23 05:47:00;;;;;;;21.23;5.32;;;;;;;;;;5133864;27;20410;-72
2021/04/23 05:49:26;;;;;;;;;;;;;;;;;;5135677;27;20039;-72
2021/04/23 05:51:52;;;;;;;;;;;;;;;;;;5134547;27;19919;-72
2021/04/23 05:54:18;;;;;;;;;;;;;;;;;;5117442;27;19920;-72
2021/04/23 05:56:45;;;;;;;;;;;;;;;;;;5135638;27;19920;-73
2021/04/23 05:59:11;;;;;;;;;;;;;;;;;;5135240;27;19919;-73
2021/04/23 06:01:37;;;;;;;14.25;4.22;;;;;;;;;;5134928;27;19920;-73
2021/04/23 06:04:03;;;;;;;11.88;3.95;;;;;;;;;;5134544;27;20096;-72
2021/04/23 06:06:29;;;;;;;12.85;4.03;;;;;;;;;;5117126;27;20039;-73
2021/04/23 06:08:55;;;;;;;;;;;;;;;;;;5134984;27;20039;-72
2021/04/23 06:11:23;;;;;;;;;;;;;;;;;;5135563;27;20334;-72
2021/04/23 06:13:49;;;;;;;;;;;;;;;;;;5135048;27;19989;-72
2021/04/23 06:16:15;;;;;;;;;;;;;;;;;;5135515;27;19919;-72
2021/04/23 06:18:41;;;;;;;;;;;;;;;;;;5135342;27;19923;-73
2021/04/23 06:21:08;;;;;;;;;;;;;;;;;;5116314;27;20010;-72
2021/04/23 06:23:34;;;;;;;;;;;;;;;;;;5134963;27;20409;-72
2021/04/23 06:26:00;;;;;;;10.25;4.43;;;;;;;;;;5133841;27;20000;-72
2021/04/23 06:28:27;;;;;;;11.02;4.10;;;;;;;;;;5134472;27;20047;-72
2021/04/23 06:30:53;;;;;;;12.55;4.55;;;;;;;;;;5133791;27;20043;-73
2021/04/23 06:33:22;;;;;;;;;;;;;;;;;;5134651;27;20067;-72
2021/04/23 06:35:48;;;;;;;;;;;;;;;;;;5134814;27;19926;-73
2021/04/23 06:38:15;;;;;;;;;;;;;;;;;;5115488;27;19971;-72
2021/04/23 06:40:41;;;;;;;;;;;;;;;;;;5115882;27;19927;-73
2021/04/23 06:43:07;;;;;;;;;;;;;;;;;;5134109;27;19923;-72
2021/04/23 06:45:33;;;;;;;;;;;;;;;;;;5134172;27;19989;-73
2021/04/23 06:47:59;;;;;;;;;;;;;;;;;;5134166;27;19949;-73
2021/04/23 06:50:25;;;;;;;;;;;;;;;;;;5134685;27;19945;-73
2021/04/23 06:52:53;;;;;;;;;;;;;;;;;;5134329;27;20362;-73
2021/04/23 06:55:20;;;;;;;12.73;4.95;;;;;;;;;;5115840;27;20362;-72
2021/04/23 06:57:46;;;;;;;12.15;4.90;;;;;;;;;;5115900;27;20068;-71
2021/04/23 07:00:14;;;;;;;11.05;4.35;;;;;;;;;;5133166;27;20069;-71
2021/04/23 07:02:41;;;;;;;11.75;4.93;;;;;;;;;;5132623;27;20043;-71
2021/04/23 07:05:07;;;;;;;;;;;;;;;;;;5133365;27;20039;-71
2021/04/23 07:07:33;;;;;;;;;;;;;;;;;;5133934;27;20014;-72
2021/04/23 07:09:59;;;;;;;;;;;;;;;;;;5133294;27;19926;-72
2021/04/23 07:12:25;;;;;;;;;;;;;;;;;;5133775;27;19919;-71
2021/04/23 07:14:51;;;;;;;;;;;;;;;;;;5115550;27;20265;-73
2021/04/23 07:17:18;;;;;;;;;;;;;;;;;;5114914;27;19972;-72
2021/04/23 07:19:47;;;;;;;;;;;;;;;;;;5133721;27;19988;-73
2021/04/23 07:22:14;;;;;;;11.63;6.15;;;;;;;;;;5132675;27;19977;-73
2021/04/23 07:24:40;;;;;;;19.52;6.78;;;;;;;;;;5115239;27;20073;-72
2021/04/23 07:27:06;;;;;;;13.05;6.20;;;;;;;;;;5132485;27;20498;-72
2021/04/23 07:29:33;;;;;;;14.88;5.97;;;;;;;;;;5115017;28;20042;-72
2021/04/23 07:31:59;;;;;;;12.52;5.65;;;;;;;;;;5132446;27;20039;-73
2021/04/23 07:34:25;;;;;;;12.20;5.50;;;;;;;;;;5132550;27;20043;-73
2021/04/23 07:36:51;;;;;;;13.98;5.40;;;;;;;;;;5133220;27;20128;-72
2021/04/23 07:39:19;;;;;;;10.05;4.57;;;;;;;;;;5114207;27;20050;-72
2021/04/23 07:41:45;;;;;;;13.75;4.65;;;;;;;;;;5114868;27;20099;-72
2021/04/23 07:44:12;;;;;;;12.00;4.40;;;;;;;;;;5114500;27;20050;-72
2021/04/23 07:46:38;;;;;;;11.10;4.50;;;;;;;;;;5132896;27;20104;-73
2021/04/23 07:49:04;;;;;;;11.38;3.95;;;;;;;;;;5132484;27;20489;-73
2021/04/23 07:51:30;;;;;;;11.10;3.95;;;;;;;;;;5114729;27;20045;-72
2021/04/23 07:53:56;;;;;;;17.08;4.78;;;;;;;;;;5132365;27;20043;-72
2021/04/23 07:56:22;;;;;;;8.85;4.50;;;;;;;;;;5132286;27;20051;-72
2021/04/23 07:58:48;;;;;;;8.70;4.25;;;;;;;;;;5114684;27;20047;-73
2021/04/23 08:01:14;;;;;;;12.13;4.45;;;;;;;;;;5132385;27;20126;-73
2021/04/23 08:03:41;;;;;;;10.95;4.22;;;;;;;;;;5132892;27;20039;-72
2021/04/23 08:06:07;;;;;;;9.35;4.82;;;;;;;;;;5132449;27;20039;-72
2021/04/23 08:08:33;;;;;;;8.00;4.53;;;;;;;;;;5081001;28;20429;-72
2021/04/23 08:10:59;;;;;;;;;;;;;;;;;;5133012;28;20347;-73
2021/04/23 08:13:26;;;;;;;;;;;;;;;;;;5132687;28;19926;-72
2021/04/23 08:15:52;;;;;;;;;;;;;;;;;;5121381;27;20021;-73
2021/04/23 08:18:20;;;;;;;;;;;;;;;;;;5139434;27;19919;-73
2021/04/23 08:20:46;;;;;;;;;;;;;;;;;;5121564;27;19935;-73
2021/04/23 08:23:12;;;;;;;10.20;4.43;;;;;;;;;;5120916;27;19925;-72
2021/04/23 08:25:38;;;;;;;9.15;4.00;;;;;;;;;;5139603;27;20130;-72
2021/04/23 08:28:04;;;;;;;12.70;4.60;;;;;;;;;;5139319;27;20055;-72
2021/04/23 08:30:31;;;;;;;9.85;4.50;;;;;;;;;;5139752;27;20073;-72
2021/04/23 08:32:58;;;;;;;;;;;;;;;;;;5140149;27;20046;-72
2021/04/23 08:35:24;;;;;;;;;;;;;;;;;;5139756;27;20104;-72
2021/04/23 08:37:50;;;;;;;;;;;;;;;;;;5121618;27;19969;-72
2021/04/23 08:40:16;;;;;;;;;;;;;;;;;;5139522;27;19946;-72
2021/04/23 08:42:42;;;;;;;;;;;;;;;;;;5140494;27;19923;-72
2021/04/23 08:45:16;;;;;;;12.27;5.18;;;;;;;;;;5120209;27;19926;-73
2021/04/23 08:47:43;;;;;;;10.35;4.60;;;;;;;;;;5139559;27;20051;-72
2021/04/23 08:50:10;;;;;;;13.48;4.78;;;;;;;;;;5120650;27;20043;-73
2021/04/23 08:52:36;;;;;;;10.23;5.13;;;;;;;;;;5139594;27;20035;-72
2021/04/23 08:55:03;;;;;;;14.93;4.65;;;;;;;;;;5139238;27;20115;-73
2021/04/23 08:57:29;;;;;;;10.25;4.78;;;;;;;;;;5138711;27;20047;-73
2021/04/23 08:59:55;;;;;;;7.55;4.30;;;;;;;;;;5120999;27;20043;-72
2021/04/23 09:02:22;;;;;;;9.55;4.35;;;;;;;;;;5138775;27;20482;-73
2021/04/23 09:04:49;;;;;;;6.80;3.50;;;;;;;;;;5139002;27;20051;-74
2021/04/23 09:07:15;;;;;;;7.30;4.10;;;;;;;;;;5119907;27;20489;-74
2021/04/23 09:09:42;;;;;;;7.32;3.03;;;;;;;;;;5120996;27;20043;-73
2021/04/23 09:12:20;;;;;;;10.13;4.22;;;;;;;;;;5138495;27;20043;-73
2021/04/23 09:14:48;;;;;;;8.15;3.38;;;;;;;;;;5139159;27;20041;-73
2021/04/23 09:17:18;;;;;;;10.02;4.40;;;;;;;;;;5138379;27;20160;-73
2021/04/23 09:19:44;;;;;;;20.48;5.88;;;;;;;;;;5120970;27;20050;-74
2021/04/23 09:22:43;;;;;;;8.32;4.05;;;;;;;;;;5138259;27;20051;-74
2021/04/23 09:25:10;;;;;;;8.05;4.28;;;;;;;;;;5075937;27;20490;-74
2021/04/23 09:27:38;;;;;;;10.75;5.47;;;;;;;;;;5134553;27;20058;-73
2021/04/23 09:30:06;;;;;;;8.23;4.45;;;;;;;;;;5117385;27;20047;-74
2021/04/23 09:32:36;;;;;;;7.53;3.95;;;;;;;;;;5135347;27;20035;-72
2021/04/23 09:35:09;;;;;;;6.15;3.47;;;;;;;;;;5135437;27;20047;-73
2021/04/23 09:37:44;;;;;;;9.43;4.13;;;;;;;;;;5135575;27;20047;-73
2021/04/23 09:40:11;;;;;;;9.05;4.68;;;;;;;;;;5117000;27;20125;-73
2021/04/23 09:42:44;;;;;;;9.65;4.35;;;;;;;;;;5135639;27;20114;-73
2021/04/23 09:45:10;;;;;;;6.25;3.97;;;;;;;;;;5135196;27;20043;-73
2021/04/23 09:47:38;;;;;;;8.40;3.42;;;;;;;;;;5116891;27;20116;-72
2021/04/23 09:50:06;;;;;;;8.15;4.28;;;;;;;;;;5117272;27;20450;-73
2021/04/23 09:52:33;;;;;;;8.23;4.53;;;;;;;;;;5134328;27;20106;-73
2021/04/23 09:55:03;;;;;;;11.25;4.13;;;;;;;;;;5116895;27;20043;-73
2021/04/23 09:57:33;;;;;;;11.35;4.25;;;;;;;;;;5134949;27;20070;-73
2021/04/23 10:00:00;;;;;;;10.30;4.28;;;;;;;;;;5134862;27;20047;-73
2021/04/23 10:02:27;;;;;;;14.10;4.22;;;;;;;;;;5134349;27;20046;-73
2021/04/23 10:04:54;;;;;;;10.35;3.88;;;;;;;;;;5135007;27;20046;-72
2021/04/23 10:07:32;;;;;;;10.05;3.50;;;;;;;;;;5134564;27;20031;-72
2021/04/23 10:10:01;;;;;;;6.07;3.60;;;;;;;;;;5116929;27;20044;-72
2021/04/23 10:12:30;;;;;;;7.15;3.65;;;;;;;;;;5134314;27;20091;-73
2021/04/23 10:15:05;;;;;;;8.55;4.07;;;;;;;;;;5116435;27;20474;-73
2021/04/23 10:17:31;;;;;;;9.25;3.47;;;;;;;;;;5133822;27;20467;-72
2021/04/23 10:19:58;;;;;;;7.35;3.38;;;;;;;;;;5134892;27;20535;-72
2021/04/23 10:22:25;;;;;;;10.48;3.55;;;;;;;;;;5133696;27;20050;-72
2021/04/23 10:24:52;;;;;;;6.45;3.13;;;;;;;;;;5134577;27;20055;-72
2021/04/23 10:27:19;;;;;;;8.38;3.40;;;;;;;;;;5134092;27;20055;-72
2021/04/23 10:29:47;;;;;;;6.97;3.55;;;;;;;;;;5134241;27;20088;-72
2021/04/23 10:32:13;;;;;;;9.55;3.70;;;;;;;;;;5116059;27;20159;-72
2021/04/23 10:34:41;;;;;;;7.30;3.35;;;;;;;;;;5115407;27;20475;-72
2021/04/23 10:37:07;;;;;;;5.40;3.25;;;;;;;;;;5134496;27;20035;-72
2021/04/23 10:39:35;;;;;;;7.25;3.67;;;;;;;;;;5115596;27;20127;-71
2021/04/23 10:42:02;;;;;;;7.80;3.78;;;;;;;;;;5116094;27;20043;-72
2021/04/23 10:44:47;;;;;;;8.13;3.75;;;;;;;;;;5133263;27;20150;-72
2021/04/23 10:47:28;;;;;;;9.90;4.75;;;;;;;;;;5134114;27;20043;-72
2021/04/23 10:50:07;;;;;;;6.05;3.67;;;;;;;;;;5116119;27;20035;-72
2021/04/23 10:52:33;;;;;;;9.15;3.60;;;;;;;;;;5133541;27;20147;-71
2021/04/23 10:55:07;;;;;;;8.48;4.15;;;;;;;;;;5115692;27;20042;-72
2021/04/23 10:57:52;;;;;;;8.27;2.75;;;;;;;;;;5115373;27;20031;-73
2021/04/23 11:00:34;;;;;;;9.13;3.00;;;;;;;;;;5134104;27;20039;-71
2021/04/23 11:03:22;;;;;;;7.88;3.95;;;;;;;;;;5134017;27;20035;-72
2021/04/23 11:05:49;;;;;;;10.95;3.38;;;;;;;;;;5133993;27;20070;-71
2021/04/23 11:08:15;;;;;;;7.05;2.88;;;;;;;;;;5133318;27;20046;-72
2021/04/23 11:11:00;;;;;;;7.57;3.42;;;;;;;;;;5132890;27;20071;-72
2021/04/23 11:13:27;;;;;;;4.18;2.28;;;;;;;;;;5132815;27;20106;-71
2021/04/23 11:16:12;;;;;;;6.97;3.20;;;;;;;;;;5133370;27;20043;-71
2021/04/23 11:18:38;;;;;;;6.70;2.95;;;;;;;;;;5133152;27;20047;-72
2021/04/23 11:21:23;;;;;;;10.27;2.92;;;;;;;;;;5133105;27;20039;-71
2021/04/23 11:24:09;;;;;;;6.30;3.30;;;;;;;;;;5133753;27;20122;-72
2021/04/23 11:29:20;;;;;;;7.50;2.55;;;;;;;;;;5133277;27;20501;-72
2021/04/23 11:32:06;;;;;;;5.07;3.20;;;;;;;;;;5133414;27;20055;-71
2021/04/23 11:34:37;;;;;;;6.25;2.97;;;;;;;;;;5132929;27;20054;-72
2021/04/23 11:37:06;;;;;;;8.05;2.85;;;;;;;;;;5133208;27;20036;-72
2021/04/23 11:39:33;;;;;;;7.35;2.53;;;;;;;;;;5132706;27;20054;-72
2021/04/23 11:42:17;;;;;;;4.28;2.50;;;;;;;;;;5133137;27;20050;-71
2021/04/23 11:44:44;;;;;;;6.38;2.47;;;;;;;;;;5114005;27;20158;-72
2021/04/23 11:47:10;;;;;;;4.55;2.42;;;;;;;;;;5132848;27;20126;-72
2021/04/23 11:49:37;;;;;;;4.88;2.55;;;;;;;;;;5131982;27;20050;-72
2021/04/23 11:52:04;;;;;;;5.25;2.33;;;;;;;;;;5132757;27;20039;-72
2021/04/23 11:54:37;;;;;;;5.95;2.97;;;;;;;;;;5132335;27;20039;-72
2021/04/23 11:57:05;;;;;;;6.00;3.00;;;;;;;;;;5133178;27;20099;-73
2021/04/23 11:59:31;;;;;;;7.13;2.78;;;;;;;;;;5132000;27;20054;-72
2021/04/23 12:01:57;;;;;;;9.85;3.30;;;;;;;;;;5132927;27;20043;-72
2021/04/23 12:04:39;;;;;;;8.90;3.00;;;;;;;;;;5132403;27;20549;-72
2021/04/23 12:07:05;;;;;;;9.38;2.75;;;;;;;;;;5114718;28;20047;-72
2021/04/23 12:09:31;;;;;;;6.50;2.90;;;;;;;;;;5131974;27;20062;-72
2021/04/23 12:12:04;;;;;;;6.30;2.60;;;;;;;;;;5132806;27;20047;-72
2021/04/23 12:14:40;;;;;;;6.82;3.13;;;;;;;;;;5132033;28;20039;-72
2021/04/23 12:17:07;;;;;;;5.78;2.80;;;;;;;;;;5114486;28;20039;-72
2021/04/23 12:19:33;;;;;;;7.97;2.83;;;;;;;;;;5114003;28;20035;-72
2021/04/23 12:21:59;;;;;;;5.70;2.67;;;;;;;;;;5132916;28;20081;-71
2021/04/23 12:24:26;;;;;;;7.47;2.80;;;;;;;;;;5132803;28;20074;-72
2021/04/23 12:26:52;;;;;;;7.63;2.80;;;;;;;;;;5132547;28;20057;-71
2021/04/23 12:29:25;;;;;;;4.82;2.55;;;;;;;;;;5132474;28;20051;-71
2021/04/23 12:31:51;;;;;;;5.88;3.00;;;;;;;;;;5132144;28;20039;-71
2021/04/23 12:34:18;;;;;;;7.22;3.13;;;;;;;;;;5132715;28;20039;-72
2021/04/23 12:36:48;;;;;;;8.57;3.80;;;;;;;;;;5132043;28;20142;-71
2021/04/23 12:39:19;;;;;;;7.45;3.75;;;;;;;;;;5132528;28;20110;-72
2021/04/23 12:41:50;;;;;;;6.63;3.17;;;;;;;;;;5131686;28;20055;-71
2021/04/23 12:44:24;;;;;;;6.22;3.40;;;;;;;;;;5132449;28;20497;-72
2021/04/23 12:46:51;;;;;;;4.70;2.45;;;;;;;;;;5131818;28;20095;-71
2021/04/23 12:49:20;;;;;;;7.80;3.55;;;;;;;;;;5132596;28;20043;-71
2021/04/23 12:51:50;;;;;;;5.75;3.80;;;;;;;;;;5131905;28;20323;-71
2021/04/23 12:54:17;;;;;;;5.95;3.15;;;;;;;;;;5132242;28;20043;-73
2021/04/23 12:56:54;;;;;;;4.75;2.30;;;;;;;;;;5131903;28;20050;-72
2021/04/23 12:59:40;;;;;;;7.22;2.47;;;;;;;;;;5132285;28;20062;-72
2021/04/23 13:02:08;;;;;;;5.03;2.30;;;;;;;;;;5134674;27;20073;-72
2021/04/23 13:04:34;;;;;;;4.88;3.10;;;;;;;;;;5135835;27;20134;-72
2021/04/23 13:07:10;;;;;;;7.32;3.47;;;;;;;;;;5117959;27;20127;-72
2021/04/23 13:09:37;;;;;;;7.10;3.55;;;;;;;;;;5135611;27;20560;-72
2021/04/23 13:12:23;;;;;;;7.28;3.08;;;;;;;;;;5117993;27;20043;-72
2021/04/23 13:14:50;;;;;;;8.00;3.20;;;;;;;;;;5117387;27;20067;-71
2021/04/23 13:17:17;;;;;;;6.63;3.22;;;;;;;;;;5136204;27;20118;-72
2021/04/23 13:19:45;;;;;;;5.53;3.30;;;;;;;;;;5135358;27;20035;-72
2021/04/23 13:22:32;;;;;;;4.97;3.17;;;;;;;;;;5117699;27;20061;-72
2021/04/23 13:25:10;;;;;;;9.32;2.90;;;;;;;;;;5135701;27;20067;-72
2021/04/23 13:27:36;;;;;;;6.22;3.00;;;;;;;;;;5135267;27;20061;-72
2021/04/23 13:30:03;;;;;;;12.07;3.42;;;;;;;;;;5135315;27;20047;-72
2021/04/23 13:32:47;;;;;;;6.53;2.88;;;;;;;;;;5135808;27;20122;-72
2021/04/23 13:35:14;;;;;;;4.10;2.70;;;;;;;;;;5135915;27;20039;-72
2021/04/23 13:37:40;;;;;;;5.60;2.60;;;;;;;;;;5134924;27;20084;-72
2021/04/23 13:40:06;;;;;;;5.68;2.70;;;;;;;;;;5135651;27;20158;-72
2021/04/23 13:42:33;;;;;;;7.10;2.55;;;;;;;;;;5135691;27;20050;-72
2021/04/23 13:45:08;;;;;;;6.95;3.15;;;;;;;;;;5135587;27;20479;-72
2021/04/23 13:47:41;;;;;;;7.63;3.33;;;;;;;;;;5135500;27;20038;-73
2021/04/23 13:50:14;;;;;;;3.65;2.58;;;;;;;;;;5116932;27;20047;-72
2021/04/23 13:52:48;;;;;;;5.60;3.03;;;;;;;;;;5134836;27;20039;-72
2021/04/23 13:55:16;;;;;;;7.53;2.63;;;;;;;;;;5135477;27;20390;-72
2021/04/23 13:58:00;;;;;;;6.13;2.75;;;;;;;;;;5116158;27;20054;-72
2021/04/23 14:00:26;;;;;;;4.75;2.65;;;;;;;;;;5135015;27;20077;-72
2021/04/23 14:02:59;;;;;;;4.95;2.50;;;;;;;;;;5134611;27;20050;-73
2021/04/23 14:05:25;;;;;;;7.55;2.90;;;;;;;;;;5100103;27;20043;-72
2021/04/23 14:07:52;;;;;;;5.07;2.47;;;;;;;;;;5134373;27;20248;-73
2021/04/23 14:10:18;;;;;;;6.22;2.63;;;;;;;;;;5116845;27;20170;-73
2021/04/23 14:12:44;;;;;;;4.13;2.22;;;;;;;;;;5133502;27;20042;-74
2021/04/23 14:15:10;;;;;;;5.03;2.55;;;;;;;;;;5116805;27;20051;-73
2021/04/23 14:17:37;;;;;;;5.75;2.70;;;;;;;;;;5134886;27;20039;-72
2021/04/23 14:20:04;;;;;;;5.55;3.08;;;;;;;;;;5134651;27;20126;-72
2021/04/23 14:22:30;;;;;;;4.80;2.85;;;;;;;;;;5134561;27;20144;-72
2021/04/23 14:24:56;;;;;;;5.65;2.58;;;;;;;;;;5115483;27;20047;-72
2021/04/23 14:27:23;;;;;;;5.18;2.38;;;;;;;;;;5116154;27;20075;-72
2021/04/23 14:29:50;;;;;;;4.25;2.08;;;;;;;;;;5115472;27;20078;-71
2021/04/23 14:32:16;;;;;;;3.95;2.00;;;;;;;;;;5116259;27;20039;-71
2021/04/23 14:34:42;;;;;;;3.65;2.20;;;;;;;;;;5115694;27;20431;-72
2021/04/23 14:37:08;;;;;;;5.10;2.20;;;;;;;;;;5134554;27;20065;-72
2021/04/23 14:39:35;;;;;;;9.25;2.83;;;;;;;;;;5116205;27;20077;-73
2021/04/23 14:42:01;;;;;;;7.53;3.30;;;;;;;;;;5133538;27;20051;-72
2021/04/23 14:44:27;;;;;;;13.38;3.38;;;;;;;;;;5134006;27;20035;-73
2021/04/23 14:46:56;;;;;;;5.07;2.58;;;;;;;;;;5133832;27;20163;-72
2021/04/23 14:49:24;;;;;;;4.85;2.90;;;;;;;;;;5115654;27;20379;-73
2021/04/23 14:51:50;;;;;;;7.03;3.13;;;;;;;;;;5133561;27;20039;-72
2021/04/23 14:54:17;;;;;;;6.88;2.83;;;;;;;;;;5134007;27;20039;-71
2021/04/23 14:56:55;;;;;;;2.50;1.92;;;;;;;;;;5133255;27;20482;-73